createdAt,value
2018-03-21T00:00:43.007Z,67.02
2018-03-21T00:03:10.419Z,66.66
2018-03-21T00:05:37.813Z,66.82
2018-03-21T00:08:05.208Z,67.20
2018-03-21T00:10:32.626Z,67.05
2018-03-21T00:13:00.237Z,67.13
2018-03-21T00:15:27.628Z,67.30
2018-03-21T00:17:55.011Z,67.47
2018-03-21T00:20:22.447Z,67.56
2018-03-21T00:22:50.119Z,67.76
2018-03-21T00:25:17.540Z,67.29
2018-03-21T00:27:44.980Z,67.17
2018-03-21T00:30:12.381Z,67.42
2018-03-21T00:32:39.775Z,68.70
2018-03-21T00:35:07.185Z,69.05
2018-03-21T00:37:34.569Z,69.17
2018-03-21T00:40:01.981Z,68.80
2018-03-21T00:42:29.376Z,69.32
2018-03-21T00:44:56.933Z,68.42
2018-03-21T00:47:24.316Z,67.60
2018-03-21T00:49:51.711Z,67.68
2018-03-21T00:52:19.120Z,67.27
2018-03-21T00:54:46.512Z,67.56
2018-03-21T00:57:13.939Z,67.48
2018-03-21T01:05:22.175Z,67.66
2018-03-21T01:07:49.597Z,67.51
2018-03-21T01:10:17.005Z,69.02
2018-03-21T01:12:44.428Z,69.51
2018-03-21T01:15:11.834Z,68.45
2018-03-21T01:17:39.255Z,68.15
2018-03-21T01:20:06.658Z,67.96
2018-03-21T01:22:34.070Z,68.25
2018-03-21T01:25:01.487Z,67.89
2018-03-21T01:27:28.915Z,67.88
2018-03-21T01:29:56.324Z,67.70
2018-03-21T01:32:23.756Z,68.01
2018-03-21T01:34:51.155Z,67.73
2018-03-21T01:37:18.577Z,67.93
2018-03-21T01:39:46.019Z,68.01
2018-03-21T01:42:13.455Z,67.93
2018-03-21T01:44:40.874Z,67.86
2018-03-21T01:47:08.298Z,67.98
2018-03-21T01:49:35.717Z,68.10
2018-03-21T01:52:03.145Z,68.15
2018-03-21T01:54:30.556Z,68.02
2018-03-21T01:56:57.961Z,68.01
2018-03-21T01:59:25.383Z,68.02
2018-03-21T02:01:52.802Z,68.09
2018-03-21T02:04:20.517Z,68.24
2018-03-21T02:06:47.921Z,68.10
2018-03-21T02:09:16.234Z,68.13
2018-03-21T02:11:43.649Z,68.00
2018-03-21T02:14:11.061Z,67.83
2018-03-21T02:16:38.479Z,67.85
2018-03-21T02:19:05.883Z,68.27
2018-03-21T02:21:33.294Z,67.97
2018-03-21T02:24:00.694Z,67.98
2018-03-21T02:26:28.117Z,68.32
2018-03-21T02:28:55.528Z,68.12
2018-03-21T02:31:22.939Z,68.52
2018-03-21T02:33:50.380Z,68.87
2018-03-21T02:36:17.798Z,68.92
2018-03-21T02:38:45.238Z,68.81
2018-03-21T02:41:12.666Z,68.66
2018-03-21T02:43:40.095Z,68.52
2018-03-21T02:46:07.522Z,68.77
2018-03-21T02:48:34.932Z,68.61
2018-03-21T02:56:42.289Z,68.89
2018-03-21T02:59:09.708Z,69.22
2018-03-21T03:01:37.135Z,70.53
2018-03-21T03:04:04.667Z,71.10
2018-03-21T03:06:32.082Z,71.24
2018-03-21T03:08:59.492Z,70.77
2018-03-21T03:11:26.907Z,70.11
2018-03-21T03:13:54.318Z,69.89
2018-03-21T03:16:21.748Z,69.88
2018-03-21T03:18:49.178Z,71.13
2018-03-21T03:21:16.635Z,70.80
2018-03-21T03:23:44.071Z,72.14
2018-03-21T03:26:11.523Z,71.80
2018-03-21T03:28:38.929Z,72.37
2018-03-21T03:31:06.340Z,71.51
2018-03-21T03:33:33.761Z,71.26
2018-03-21T03:36:01.165Z,71.13
2018-03-21T03:38:28.594Z,71.79
2018-03-21T03:40:56.003Z,72.63
2018-03-21T03:43:23.443Z,72.92
2018-03-21T03:45:50.849Z,73.15
2018-03-21T03:48:18.276Z,72.90
2018-03-21T03:50:45.818Z,72.28
2018-03-21T03:53:13.233Z,72.05
2018-03-21T03:55:40.661Z,73.18
2018-03-21T03:58:08.086Z,72.92
2018-03-21T04:00:35.496Z,72.58
2018-03-21T04:03:02.901Z,72.22
2018-03-21T04:05:30.323Z,72.32
2018-03-21T04:07:57.726Z,72.42
2018-03-21T04:10:25.135Z,72.32
2018-03-21T04:12:52.565Z,72.79
2018-03-21T04:15:19.997Z,73.95
2018-03-21T04:17:47.441Z,74.06
2018-03-21T04:20:14.849Z,73.81
2018-03-21T04:22:42.276Z,73.29
2018-03-21T04:25:09.702Z,72.93
2018-03-21T04:27:37.265Z,73.04
2018-03-21T04:30:04.678Z,73.83
2018-03-21T04:32:32.086Z,72.96
2018-03-21T04:34:59.621Z,74.89
2018-03-21T04:37:27.042Z,74.04
2018-03-21T04:39:54.454Z,73.59
2018-03-21T04:42:21.889Z,73.21
2018-03-21T04:44:49.322Z,73.12
2018-03-21T04:47:16.762Z,73.32
2018-03-21T04:49:44.217Z,73.40
2018-03-21T04:52:11.646Z,73.22
2018-03-21T04:54:39.061Z,72.84
2018-03-21T04:57:06.466Z,72.91
2018-03-21T04:59:34.198Z,72.82
2018-03-21T05:02:01.606Z,72.95
2018-03-21T05:04:29.005Z,73.04
2018-03-21T05:06:56.435Z,73.10
2018-03-21T05:09:23.845Z,73.58
2018-03-21T05:11:51.534Z,74.29
2018-03-21T05:14:18.945Z,73.67
2018-03-21T05:16:47.286Z,73.16
2018-03-21T05:19:14.735Z,73.40
2018-03-21T05:21:42.145Z,73.32
2018-03-21T05:24:09.562Z,73.06
2018-03-21T05:26:36.997Z,72.91
2018-03-21T05:29:04.424Z,72.96
2018-03-21T05:31:31.843Z,72.55
2018-03-21T05:33:59.278Z,72.45
2018-03-21T05:36:26.694Z,72.54
2018-03-21T05:38:54.101Z,72.88
2018-03-21T05:41:21.594Z,73.31
2018-03-21T05:43:48.951Z,72.44
2018-03-21T05:46:16.386Z,72.04
2018-03-21T05:48:43.789Z,71.73
2018-03-21T05:51:11.206Z,71.42
2018-03-21T05:53:38.617Z,71.13
2018-03-21T05:56:06.049Z,70.16
2018-03-21T05:58:33.449Z,68.79
2018-03-21T06:01:00.863Z,66.80
2018-03-21T06:03:28.282Z,64.80
2018-03-21T06:05:55.832Z,63.21
2018-03-21T06:08:23.258Z,61.04
2018-03-21T06:10:50.653Z,59.95
2018-03-21T06:13:18.089Z,58.34
2018-03-21T06:15:45.524Z,57.14
2018-03-21T06:18:13.024Z,55.97
2018-03-21T06:20:40.464Z,54.74
2018-03-21T06:23:08.126Z,54.99
2018-03-21T06:25:35.522Z,53.79
2018-03-21T06:28:02.945Z,52.38
2018-03-21T06:30:30.353Z,52.03
2018-03-21T06:32:57.766Z,50.73
2018-03-21T06:35:25.185Z,50.15
2018-03-21T06:37:52.583Z,51.36
2018-03-21T06:40:20.003Z,47.65
2018-03-21T06:42:47.435Z,46.37
2018-03-21T06:45:14.841Z,46.51
2018-03-21T06:47:42.251Z,44.61
2018-03-21T06:50:09.665Z,43.65
2018-03-21T06:52:37.085Z,43.13
2018-03-21T06:55:04.513Z,42.88
2018-03-21T06:57:31.933Z,43.89
2018-03-21T06:59:59.344Z,43.45
2018-03-21T07:02:26.766Z,41.50
2018-03-21T07:04:54.176Z,42.39
2018-03-21T07:07:21.598Z,41.11
2018-03-21T07:09:49.052Z,42.27
2018-03-21T07:12:16.561Z,40.37
2018-03-21T07:14:55.682Z,40.05
2018-03-21T07:17:23.151Z,40.11
2018-03-21T07:19:50.706Z,42.15
2018-03-21T07:22:18.134Z,41.26
2018-03-21T07:24:45.545Z,40.36
2018-03-21T07:27:12.971Z,40.47
2018-03-21T07:29:40.387Z,40.25
2018-03-21T07:32:07.798Z,40.63
2018-03-21T07:34:35.228Z,40.83
2018-03-21T07:37:02.622Z,41.26
2018-03-21T07:39:30.049Z,40.21
2018-03-21T07:41:57.473Z,39.82
2018-03-21T07:44:24.893Z,39.81
2018-03-21T07:46:52.323Z,39.76
2018-03-21T07:49:19.755Z,40.14
2018-03-21T07:51:47.153Z,40.53
2018-03-21T07:54:14.586Z,40.61
2018-03-21T07:56:41.999Z,40.97
2018-03-21T07:59:09.422Z,41.36
2018-03-21T08:01:36.839Z,41.52
2018-03-21T08:04:04.278Z,41.25
2018-03-21T08:06:31.690Z,40.61
2018-03-21T08:08:59.125Z,40.27
2018-03-21T08:11:26.537Z,40.03
2018-03-21T08:13:53.965Z,39.43
2018-03-21T08:16:21.377Z,39.31
2018-03-21T08:18:48.786Z,39.10
2018-03-21T08:21:16.318Z,39.10
2018-03-21T08:23:43.725Z,38.89
2018-03-21T08:26:11.133Z,38.64
2018-03-21T08:28:38.681Z,38.49
2018-03-21T08:31:06.093Z,38.22
2018-03-21T08:33:33.501Z,38.68
2018-03-21T08:36:00.926Z,38.11
2018-03-21T08:38:28.321Z,39.08
2018-03-21T08:40:55.760Z,39.27
2018-03-21T08:43:23.176Z,41.16
2018-03-21T08:45:50.635Z,42.06
2018-03-21T08:48:18.063Z,43.87
2018-03-21T08:50:45.517Z,44.43
2018-03-21T08:53:12.930Z,43.85
2018-03-21T08:55:40.345Z,43.86
2018-03-21T08:58:07.757Z,43.55
2018-03-21T09:00:35.177Z,43.03
2018-03-21T09:03:02.601Z,43.16
2018-03-21T09:05:30.006Z,43.11
2018-03-21T09:07:57.426Z,42.79
2018-03-21T09:10:24.842Z,43.15
2018-03-21T09:12:52.246Z,43.80
2018-03-21T09:15:19.677Z,44.80
2018-03-21T09:17:47.085Z,44.80
2018-03-21T09:20:14.493Z,45.29
2018-03-21T09:22:41.923Z,45.68
2018-03-21T09:25:09.354Z,45.23
2018-03-21T09:27:36.749Z,45.59
2018-03-21T09:30:04.160Z,46.77
2018-03-21T09:32:31.769Z,46.72
2018-03-21T09:34:59.183Z,48.73
2018-03-21T09:37:26.638Z,49.25
2018-03-21T09:39:54.017Z,49.92
2018-03-21T09:42:21.430Z,50.82
2018-03-21T09:44:48.857Z,51.06
2018-03-21T09:47:16.258Z,51.24
2018-03-21T09:49:43.779Z,52.59
2018-03-21T09:52:11.090Z,52.31
2018-03-21T09:54:43.390Z,52.22
2018-03-21T09:57:11.155Z,52.32
2018-03-21T09:59:38.575Z,51.62
2018-03-21T10:02:05.983Z,51.54
2018-03-21T10:04:33.410Z,52.56
2018-03-21T10:07:00.835Z,52.65
2018-03-21T10:09:28.254Z,52.28
2018-03-21T10:11:55.675Z,52.64
2018-03-21T10:14:23.171Z,52.76
2018-03-21T10:16:50.530Z,53.52
2018-03-21T10:19:18.394Z,53.35
2018-03-21T10:21:45.801Z,53.63
2018-03-21T10:24:13.218Z,54.04
2018-03-21T10:26:40.637Z,53.96
2018-03-21T10:29:08.069Z,53.97
2018-03-21T10:31:35.746Z,54.32
2018-03-21T10:34:03.156Z,54.16
2018-03-21T10:36:30.614Z,54.32
2018-03-21T10:38:57.995Z,54.52
2018-03-21T10:41:25.406Z,55.43
2018-03-21T10:43:52.844Z,55.44
2018-03-21T10:46:20.250Z,55.47
2018-03-21T10:48:47.657Z,55.86
2018-03-21T10:51:15.102Z,57.07
2018-03-21T10:53:42.516Z,57.89
2018-03-21T10:56:09.962Z,58.70
2018-03-21T10:58:37.398Z,59.02
2018-03-21T11:01:10.537Z,59.50
2018-03-21T11:03:38.306Z,59.92
2018-03-21T11:06:05.726Z,60.35
2018-03-21T11:08:34.088Z,60.84
2018-03-21T11:11:01.816Z,60.90
2018-03-21T11:13:29.252Z,60.81
2018-03-21T11:15:56.661Z,61.78
2018-03-21T11:18:24.086Z,61.37
2018-03-21T11:20:51.550Z,61.39
2018-03-21T11:23:18.982Z,61.08
2018-03-21T11:25:46.547Z,60.97
2018-03-21T11:28:14.095Z,61.25
2018-03-21T11:30:41.518Z,61.23
2018-03-21T11:33:08.961Z,61.23
2018-03-21T11:35:36.500Z,61.14
2018-03-21T11:38:03.914Z,61.25
2018-03-21T11:40:31.326Z,61.19
2018-03-21T11:42:58.754Z,60.91
2018-03-21T11:45:26.174Z,61.72
2018-03-21T11:47:53.861Z,61.65
2018-03-21T11:50:21.317Z,61.82
2018-03-21T11:52:48.750Z,61.40
2018-03-21T11:55:16.192Z,61.45
2018-03-21T11:57:43.743Z,61.66
2018-03-21T12:00:11.153Z,60.99
2018-03-21T12:02:38.583Z,61.05
2018-03-21T12:05:06.001Z,60.38
2018-03-21T12:07:33.422Z,60.72
2018-03-21T12:10:00.849Z,60.35
2018-03-21T12:12:29.400Z,59.68
2018-03-21T12:14:56.807Z,59.08
2018-03-21T12:17:24.218Z,59.27
2018-03-21T12:19:51.666Z,59.19
2018-03-21T12:22:19.073Z,59.14
2018-03-21T12:24:46.487Z,59.34
2018-03-21T12:27:14.408Z,59.60
2018-03-21T12:29:41.829Z,59.71
2018-03-21T12:32:09.242Z,59.87
2018-03-21T12:34:36.683Z,58.88
2018-03-21T12:37:04.096Z,58.87
2018-03-21T12:39:31.522Z,59.21
2018-03-21T12:41:58.960Z,58.37
2018-03-21T12:44:26.454Z,58.03
2018-03-21T12:46:53.901Z,59.09
2018-03-21T12:49:21.393Z,58.85
2018-03-21T12:51:48.838Z,58.57
2018-03-21T12:54:16.450Z,58.31
2018-03-21T12:56:44.456Z,57.71
2018-03-21T12:59:11.874Z,57.83
2018-03-21T13:01:39.310Z,57.90
2018-03-21T13:04:06.717Z,57.65
2018-03-21T13:06:34.128Z,57.12
2018-03-21T13:09:01.550Z,56.83
2018-03-21T13:11:28.961Z,56.92
2018-03-21T13:13:56.378Z,56.38
2018-03-21T13:16:23.787Z,55.97
2018-03-21T13:18:51.215Z,56.55
2018-03-21T13:21:18.629Z,56.51
2018-03-21T13:23:46.070Z,57.17
2018-03-21T13:26:13.481Z,57.25
2018-03-21T13:28:40.902Z,57.22
2018-03-21T13:31:08.339Z,57.22
2018-03-21T13:33:35.749Z,57.11
2018-03-21T13:36:03.172Z,56.10
2018-03-21T13:38:30.594Z,55.88
2018-03-21T13:40:58.018Z,55.02
2018-03-21T13:43:25.443Z,54.64
2018-03-21T13:45:52.849Z,54.52
2018-03-21T13:48:20.263Z,53.93
2018-03-21T13:50:47.698Z,53.99
2018-03-21T13:53:15.105Z,54.16
2018-03-21T13:55:42.518Z,54.20
2018-03-21T13:58:09.930Z,53.96
2018-03-21T14:00:37.455Z,54.17
2018-03-21T14:03:04.858Z,54.60
2018-03-21T14:05:32.267Z,54.25
2018-03-21T14:07:59.704Z,54.27
2018-03-21T14:10:27.116Z,53.83
2018-03-21T14:12:54.559Z,54.03
2018-03-21T14:15:21.965Z,53.85
2018-03-21T14:17:49.378Z,53.41
2018-03-21T14:20:16.804Z,52.99
2018-03-21T14:22:44.203Z,52.71
2018-03-21T14:25:11.639Z,52.93
2018-03-21T14:27:39.051Z,52.75
2018-03-21T14:30:06.505Z,52.62
2018-03-21T14:32:33.892Z,52.83
2018-03-21T14:35:01.298Z,52.66
2018-03-21T14:37:28.768Z,52.87
2018-03-21T14:39:56.172Z,53.11
2018-03-21T14:42:23.939Z,52.84
2018-03-21T14:44:51.350Z,52.95
2018-03-21T14:47:18.832Z,53.59
2018-03-21T14:49:46.407Z,54.26
2018-03-21T14:52:13.811Z,54.67
2018-03-21T14:54:41.218Z,55.08
2018-03-21T14:57:08.678Z,55.39
2018-03-21T14:59:36.098Z,56.04
2018-03-21T15:02:03.589Z,56.12
2018-03-21T15:04:31.005Z,55.83
2018-03-21T15:06:58.421Z,55.48
2018-03-21T15:09:25.852Z,55.58
2018-03-21T15:11:53.294Z,55.63
2018-03-21T15:14:20.790Z,56.07
2018-03-21T15:16:48.205Z,56.81
2018-03-21T15:19:15.870Z,56.42
2018-03-21T15:21:43.289Z,56.67
2018-03-21T15:24:10.714Z,56.84
2018-03-21T15:26:38.152Z,56.95
2018-03-21T15:29:06.456Z,57.25
2018-03-21T15:31:33.866Z,57.36
2018-03-21T15:34:01.294Z,57.09
2018-03-21T15:36:28.722Z,57.52
2018-03-21T15:38:56.125Z,57.38
2018-03-21T15:41:23.558Z,57.18
2018-03-21T15:43:51.082Z,56.96
2018-03-21T15:46:18.498Z,56.45
2018-03-21T15:48:45.905Z,56.21
2018-03-21T15:51:13.387Z,56.17
2018-03-21T15:53:40.747Z,56.02
2018-03-21T15:56:08.167Z,56.48
2018-03-21T15:58:35.579Z,56.30
2018-03-21T16:01:03.011Z,56.05
2018-03-21T16:03:30.427Z,56.01
2018-03-21T16:05:57.875Z,56.00
2018-03-21T16:08:25.324Z,55.66
2018-03-21T16:10:52.740Z,55.68
2018-03-21T16:13:20.173Z,55.67
2018-03-21T16:15:47.626Z,55.64
2018-03-21T16:18:15.089Z,55.75
2018-03-21T16:20:42.532Z,56.05
2018-03-21T16:23:09.982Z,56.04
2018-03-21T16:25:37.398Z,56.06
2018-03-21T16:28:04.808Z,55.98
2018-03-21T16:30:32.234Z,56.27
2018-03-21T16:32:59.657Z,56.54
2018-03-21T16:35:27.433Z,56.84
2018-03-21T16:37:54.865Z,56.82
2018-03-21T16:40:22.267Z,57.37
2018-03-21T16:42:49.690Z,57.36
2018-03-21T16:45:17.107Z,57.87
2018-03-21T16:47:44.535Z,57.79
2018-03-21T16:50:11.937Z,58.12
2018-03-21T16:52:39.382Z,58.89
2018-03-21T16:55:06.780Z,58.88
2018-03-21T16:57:34.207Z,59.01
2018-03-21T17:00:01.645Z,59.32
2018-03-21T17:02:29.054Z,59.76
2018-03-21T17:04:56.586Z,59.65
2018-03-21T17:07:24.013Z,59.46
2018-03-21T17:09:51.424Z,60.23
2018-03-21T17:12:18.844Z,60.40
2018-03-21T17:14:46.284Z,59.95
2018-03-21T17:17:13.686Z,60.05
2018-03-21T17:19:41.150Z,60.02
2018-03-21T17:22:08.541Z,59.96
2018-03-21T17:24:35.956Z,60.31
2018-03-21T17:27:03.385Z,60.32
2018-03-21T17:29:30.786Z,60.58
2018-03-21T17:31:58.206Z,60.52
2018-03-21T17:34:25.662Z,60.75
2018-03-21T17:36:53.067Z,60.68
2018-03-21T17:39:20.485Z,60.53
2018-03-21T17:41:48.018Z,61.06
2018-03-21T17:44:15.452Z,60.99
2018-03-21T17:46:42.877Z,60.80
2018-03-21T17:49:10.309Z,61.15
2018-03-21T17:51:37.714Z,60.66
2018-03-21T17:54:05.138Z,60.82
2018-03-21T17:56:32.541Z,61.01
2018-03-21T17:58:59.949Z,61.50
2018-03-21T18:01:27.374Z,61.41
2018-03-21T18:03:54.809Z,61.18
2018-03-21T18:06:22.393Z,61.31
2018-03-21T18:08:49.830Z,61.07
2018-03-21T18:11:17.267Z,61.23
2018-03-21T18:13:45.001Z,61.46
2018-03-21T18:16:12.416Z,61.37
2018-03-21T18:18:39.821Z,61.61
2018-03-21T18:21:07.604Z,61.75
2018-03-21T18:23:35.001Z,61.75
2018-03-21T18:26:02.422Z,61.84
2018-03-21T18:28:29.847Z,61.96
2018-03-21T18:30:57.250Z,62.18
2018-03-21T18:33:24.656Z,62.27
2018-03-21T18:35:52.079Z,62.27
2018-03-21T18:38:19.487Z,62.16
2018-03-21T18:40:46.897Z,62.11
2018-03-21T18:43:14.322Z,62.48
2018-03-21T18:45:41.750Z,62.39
2018-03-21T18:48:09.150Z,62.43
2018-03-21T18:50:36.560Z,62.37
2018-03-21T18:53:04.293Z,62.17
2018-03-21T18:55:31.702Z,62.01
2018-03-21T18:57:59.128Z,61.65
2018-03-21T19:00:26.558Z,61.57
2018-03-21T19:02:53.960Z,61.73
2018-03-21T19:05:21.482Z,61.68
2018-03-21T19:07:48.912Z,61.69
2018-03-21T19:10:16.327Z,61.67
2018-03-21T19:15:11.010Z,61.41
2018-03-21T19:17:38.425Z,61.11
2018-03-21T19:20:05.840Z,61.50
2018-03-21T19:22:33.254Z,61.38
2018-03-21T19:25:00.666Z,61.15
2018-03-21T19:27:28.094Z,61.21
2018-03-21T19:29:55.508Z,61.31
2018-03-21T19:32:22.969Z,61.32
2018-03-21T19:34:50.433Z,61.11
2018-03-21T19:37:18.213Z,61.08
2018-03-21T19:39:45.646Z,61.17
2018-03-21T19:42:13.069Z,61.64
2018-03-21T19:44:40.498Z,61.62
2018-03-21T19:47:07.905Z,61.45
2018-03-21T19:49:35.380Z,61.55
2018-03-21T19:52:02.781Z,61.75
2018-03-21T19:54:30.193Z,61.74
2018-03-21T19:56:57.621Z,61.98
2018-03-21T19:59:25.058Z,61.94
2018-03-21T20:01:52.466Z,62.00
2018-03-21T20:04:19.891Z,62.23
2018-03-21T20:06:47.317Z,62.31
2018-03-21T20:09:15.184Z,62.44
2018-03-21T20:11:42.602Z,62.77
2018-03-21T20:14:09.997Z,63.00
2018-03-21T20:16:37.426Z,62.96
2018-03-21T20:19:04.835Z,63.17
2018-03-21T20:21:32.239Z,63.20
2018-03-21T20:23:59.662Z,63.20
2018-03-21T20:26:27.065Z,63.32
2018-03-21T20:28:54.505Z,63.43
2018-03-21T20:31:21.952Z,63.26
2018-03-21T20:33:49.362Z,63.71
2018-03-21T20:36:16.795Z,64.09
2018-03-21T20:38:44.209Z,63.70
2018-03-21T20:41:11.613Z,63.92
2018-03-21T20:43:39.033Z,64.05
2018-03-21T20:46:06.440Z,63.85
2018-03-21T20:48:34.046Z,64.05
2018-03-21T20:51:01.508Z,64.49
2018-03-21T20:53:28.866Z,64.38
2018-03-21T20:55:56.518Z,64.56
2018-03-21T20:58:23.942Z,64.61
2018-03-21T21:00:51.367Z,64.30
2018-03-21T21:03:19.068Z,64.31
2018-03-21T21:05:46.489Z,64.38
2018-03-21T21:08:13.966Z,64.30
2018-03-21T21:10:41.587Z,64.39
2018-03-21T21:13:08.989Z,64.56
2018-03-21T21:15:36.405Z,64.52
2018-03-21T21:18:03.938Z,64.63
2018-03-21T21:20:31.353Z,64.50
2018-03-21T21:22:58.755Z,64.45
2018-03-21T21:25:26.317Z,64.55
2018-03-21T21:27:53.737Z,64.65
2018-03-21T21:30:21.159Z,64.70
2018-03-21T21:32:48.865Z,64.51
2018-03-21T21:35:16.286Z,64.52
2018-03-21T21:37:43.865Z,64.40
2018-03-21T21:40:11.611Z,64.40
2018-03-21T21:42:39.022Z,64.28
2018-03-21T21:45:06.455Z,64.40
2018-03-21T21:47:33.876Z,64.39
2018-03-21T21:50:01.423Z,64.41
2018-03-21T21:52:29.062Z,64.55
2018-03-21T21:54:56.547Z,64.53
2018-03-21T21:57:24.010Z,64.12
2018-03-21T21:59:51.435Z,64.23
2018-03-21T22:02:18.878Z,64.08
2018-03-21T22:04:46.339Z,64.25
2018-03-21T22:07:13.749Z,64.42
2018-03-21T22:09:41.184Z,63.92
2018-03-21T22:12:14.242Z,64.37
2018-03-21T22:14:41.714Z,64.08
2018-03-21T22:17:09.137Z,64.23
2018-03-21T22:19:36.642Z,64.29
2018-03-21T22:22:04.178Z,64.13
2018-03-21T22:24:31.648Z,64.10
2018-03-21T22:26:59.085Z,64.08
2018-03-21T22:29:26.513Z,64.16
2018-03-21T22:31:53.934Z,64.26
2018-03-21T22:34:21.362Z,64.08
2018-03-21T22:36:48.858Z,64.26
2018-03-21T22:39:16.413Z,64.17
2018-03-21T22:41:43.898Z,64.25
2018-03-21T22:44:11.317Z,64.19
2018-03-21T22:46:38.740Z,64.17
2018-03-21T22:49:06.546Z,64.01
2018-03-21T22:51:33.953Z,63.94
2018-03-21T22:54:01.361Z,64.02
2018-03-21T22:56:28.782Z,64.30
2018-03-21T22:58:56.194Z,64.47
2018-03-21T23:01:23.833Z,64.21
2018-03-21T23:03:51.309Z,64.20
2018-03-21T23:06:18.827Z,64.02
2018-03-21T23:08:46.250Z,64.22
2018-03-21T23:11:13.702Z,64.15
2018-03-21T23:13:41.111Z,64.14
2018-03-21T23:16:08.541Z,64.03
2018-03-21T23:18:35.954Z,64.34
2018-03-21T23:21:03.374Z,64.46
2018-03-21T23:23:30.785Z,64.48
2018-03-21T23:25:58.213Z,64.61
2018-03-21T23:28:25.625Z,64.60
2018-03-21T23:30:53.038Z,64.60
2018-03-21T23:33:20.472Z,64.83
2018-03-21T23:35:47.896Z,64.59
2018-03-21T23:38:15.372Z,64.89
2018-03-21T23:40:42.827Z,64.97
2018-03-21T23:43:10.266Z,64.99
2018-03-21T23:45:37.680Z,65.00
2018-03-21T23:48:05.206Z,65.11
2018-03-21T23:50:32.626Z,64.85
2018-03-21T23:53:00.038Z,65.03
2018-03-21T23:55:27.462Z,65.18
2018-03-21T23:57:55.054Z,65.22
